Aérodrome :
LOGIN :

S'inscrire | Disclaimer

   EN    FR    IT 

 










Légende :    VFR   VFR Marginal   IFR   IFR Intensif   IFR Très Intensif
Visi : 
Plafond : 
>= 8 km
>= 3000ft
5 à 8 km
1000 à 3000 ft
1500m à 5 km
500 à 1000 ft
800 à 1500m
200 à 500 ft
< 800m
< 200 ft
Symboles :   Orages  Brouillard  Fortes neiges  Fortes précipitations  Vent > 20 kt
SIGMETs :   Divers  Orages  Givrage  Turbulence  Onde Orograph.  Cendres Volcan.







- Altitude de l'aérodrome : 640 ft
- Code IATA : AOC


EDAC - Altenburg-Nobitz

DERNIER METAR :
  • 201850Z AUTO 20004KT 160V220 9999 // FEW062/// SCT094/// BKN210/// 22/16 Q1012

METARs EXPIRÉS :
  • 201820Z AUTO 28005KT 250V320 9999 // SCT096/// BKN230/// 23/14 Q1012
  • 201750Z 28009KT 9999 SCT036TCU 24/15 Q1012
  • 201720Z 28006KT 9999 SCT055TCU 24/14 Q1012
  • 201650Z 29006KT 9999 FEW056TCU SCT068 25/14 Q1011
  • 201620Z 29007KT 9999 FEW056TCU 26/14 Q1011

TAF TAF EDAC
Valide du 20 à 18h jusqu'au 21 à 03h UTC


201700Z 2018/2103 24005KT 9999 FEW045
PROB40
TEMPO 2018/2022 27020G35KT TSRA BKN030CB
Pas de NOTAMs connus pour ce terrain.



MET'MAP, la Météo Aéronautique d'un coup d'oeil ! - Copyright ORBIFLY Décembre 2007 - Disclaimer

ORBIFLY MET'MAP TEAM :

Programmation & Développement : Alexandra Zaïnal
Conception & Développement : Baudouin d'Aumeries
Co-Programmation & Développement : Marc-Olivier Méhu
Soutien technique & logistique : Manuel Goepfert

Contact : metmap@orbifly.com




SOURCES & CREDITS :

   NOAA